createdAt,value
2019-04-07T00:02:22.749Z,10.59
2019-04-07T00:04:52.323Z,10.64
2019-04-07T00:07:21.529Z,10.60
2019-04-07T00:09:52.570Z,10.60
2019-04-07T00:12:22.105Z,10.63
2019-04-07T00:14:51.425Z,10.70
2019-04-07T00:17:20.696Z,10.72
2019-04-07T00:19:56.987Z,10.72
2019-04-07T00:22:25.294Z,10.70
2019-04-07T00:25:02.596Z,10.68
2019-04-07T00:27:32.036Z,10.80
2019-04-07T00:30:01.885Z,10.80
2019-04-07T00:32:31.233Z,10.75
2019-04-07T00:35:00.457Z,10.75
2019-04-07T00:37:31.074Z,10.77
2019-04-07T00:40:00.278Z,10.79
2019-04-07T00:42:29.999Z,10.84
2019-04-07T00:44:59.703Z,10.85
2019-04-07T00:47:29.465Z,10.84
2019-04-07T00:50:01.549Z,10.84
2019-04-07T00:52:30.765Z,10.76
2019-04-07T00:55:01.472Z,10.76
2019-04-07T00:57:30.645Z,10.89
2019-04-07T00:59:59.777Z,11.03
2019-04-07T01:02:28.888Z,10.93
2019-04-07T01:04:58.419Z,10.87
2019-04-07T01:07:27.948Z,10.87
2019-04-07T01:09:58.517Z,10.97
2019-04-07T01:12:28.167Z,11.00
2019-04-07T01:14:57.368Z,10.95
2019-04-07T01:17:26.922Z,10.95
2019-04-07T01:19:58.657Z,10.97
2019-04-07T01:22:28.174Z,10.97
2019-04-07T01:24:57.313Z,11.04
2019-04-07T01:27:27.017Z,11.03
2019-04-07T01:29:56.437Z,10.97
2019-04-07T01:32:26.658Z,10.96
2019-04-07T01:34:55.943Z,10.91
2019-04-07T01:37:25.280Z,10.96
2019-04-07T01:39:54.888Z,10.94
2019-04-07T01:42:32.559Z,10.94
2019-04-07T01:45:33.319Z,10.98
2019-04-07T01:48:20.365Z,10.90
2019-04-07T01:51:13.512Z,10.96
2019-04-07T01:54:17.562Z,10.92
2019-04-07T01:57:03.633Z,10.92
2019-04-07T01:59:51.959Z,10.87
2019-04-07T02:02:39.169Z,10.96
2019-04-07T02:05:30.898Z,10.88
2019-04-07T02:08:19.931Z,10.88
2019-04-07T02:11:18.640Z,11.00
2019-04-07T02:14:05.953Z,10.91
2019-04-07T02:16:42.385Z,10.98
2019-04-07T02:19:27.061Z,10.97
2019-04-07T02:22:20.138Z,10.88
2019-04-07T02:24:58.720Z,10.98
2019-04-07T02:27:42.704Z,10.81
2019-04-07T02:30:20.403Z,10.86
2019-04-07T02:32:58.254Z,11.09
2019-04-07T02:35:46.675Z,11.28
2019-04-07T02:38:31.540Z,11.34
2019-04-07T02:41:30.454Z,11.26
2019-04-07T02:44:27.999Z,11.07
2019-04-07T02:47:18.142Z,11.07
2019-04-07T02:49:56.054Z,10.97
2019-04-07T02:52:34.462Z,10.96
2019-04-07T02:55:26.458Z,10.88
2019-04-07T02:58:13.966Z,11.19
2019-04-07T03:00:57.724Z,10.96
2019-04-07T03:03:40.691Z,10.96
2019-04-07T03:06:34.616Z,10.70
2019-04-07T03:08:57.160Z,10.60
2019-04-07T03:11:33.594Z,10.62
2019-04-07T03:14:22.116Z,10.43
2019-04-07T03:17:06.308Z,10.44
2019-04-07T03:19:43.551Z,10.29
2019-04-07T03:22:40.243Z,10.31
2019-04-07T03:25:42.296Z,10.30
2019-04-07T03:28:20.146Z,10.25
2019-04-07T03:31:06.966Z,10.25
2019-04-07T03:34:08.947Z,10.13
2019-04-07T03:37:22.724Z,10.13
2019-04-07T03:39:56.921Z,10.00
2019-04-07T03:42:45.813Z,10.07
2019-04-07T03:45:37.922Z,10.06
2019-04-07T03:48:15.881Z,10.04
2019-04-07T03:50:54.798Z,10.06
2019-04-07T03:53:42.168Z,9.95
2019-04-07T03:56:30.896Z,9.90
2019-04-07T03:59:22.222Z,9.95
2019-04-07T04:02:10.977Z,9.91
2019-04-07T04:04:45.628Z,9.84
2019-04-07T04:07:31.575Z,9.84
2019-04-07T04:10:08.444Z,9.91
2019-04-07T04:12:56.615Z,9.84
2019-04-07T04:15:32.902Z,9.89
2019-04-07T04:18:03.297Z,9.89
2019-04-07T04:20:32.559Z,9.89
2019-04-07T04:23:01.829Z,9.88
2019-04-07T04:25:30.884Z,9.91
2019-04-07T04:28:01.107Z,9.87
2019-04-07T04:30:30.573Z,9.91
2019-04-07T04:32:59.824Z,9.78
2019-04-07T04:35:29.907Z,9.81
2019-04-07T04:37:59.795Z,9.75
2019-04-07T04:40:29.837Z,9.65
2019-04-07T04:42:59.009Z,9.57
2019-04-07T04:45:28.203Z,9.55
2019-04-07T04:47:57.298Z,9.48
2019-04-07T04:50:26.462Z,9.55
2019-04-07T04:52:56.389Z,9.57
2019-04-07T04:55:25.545Z,9.26
2019-04-07T04:57:54.671Z,9.21
2019-04-07T05:00:24.954Z,9.31
2019-04-07T05:02:54.062Z,9.39
2019-04-07T05:05:23.279Z,9.16
2019-04-07T05:07:59.264Z,9.10
2019-04-07T05:10:23.285Z,9.10
2019-04-07T05:12:52.336Z,8.97
2019-04-07T05:15:21.515Z,9.15
2019-04-07T05:17:50.915Z,9.24
2019-04-07T05:20:20.139Z,9.31
2019-04-07T05:22:49.554Z,9.31
2019-04-07T05:25:26.456Z,9.25
2019-04-07T05:27:55.861Z,9.04
2019-04-07T05:33:54.496Z,9.11
2019-04-07T05:36:26.883Z,9.17
2019-04-07T05:38:56.301Z,9.17
2019-04-07T05:41:26.190Z,9.18
2019-04-07T05:43:55.773Z,9.18
2019-04-07T05:46:25.035Z,9.25
2019-04-07T05:48:55.500Z,9.30
2019-04-07T05:51:29.920Z,9.47
2019-04-07T05:53:56.181Z,9.52
2019-04-07T05:56:28.148Z,9.63
2019-04-07T05:58:57.134Z,9.65
2019-04-07T06:01:28.583Z,9.79
2019-04-07T06:03:59.984Z,9.79
2019-04-07T06:07:03.608Z,9.84
2019-04-07T06:12:51.462Z,9.98
2019-04-07T06:15:32.528Z,10.03
2019-04-07T06:18:02.498Z,10.05
2019-04-07T06:20:32.317Z,10.05
2019-04-07T06:23:02.035Z,10.26
2019-04-07T06:25:37.857Z,10.26
2019-04-07T06:28:03.343Z,10.29
2019-04-07T06:30:42.791Z,10.35
2019-04-07T06:33:14.335Z,10.34
2019-04-07T06:35:45.083Z,10.41
2019-04-07T06:38:16.647Z,10.57
2019-04-07T06:44:37.736Z,10.68
2019-04-07T06:55:02.450Z,10.88
2019-04-07T06:58:08.605Z,11.13
2019-04-07T07:01:48.260Z,11.32
2019-04-07T07:04:35.549Z,11.32
2019-04-07T07:07:20.668Z,11.60
2019-04-07T07:10:07.455Z,11.81
2019-04-07T07:12:54.052Z,11.98
2019-04-07T07:15:57.303Z,11.98
2019-04-07T07:18:41.320Z,12.23
2019-04-07T07:21:36.519Z,12.73
2019-04-07T07:24:03.833Z,12.51
2019-04-07T07:26:35.265Z,12.69
2019-04-07T07:29:06.319Z,13.06
2019-04-07T07:31:34.777Z,13.07
2019-04-07T07:34:04.051Z,13.23
2019-04-07T07:36:34.960Z,12.89
2019-04-07T07:39:10.213Z,13.29
2019-04-07T07:41:37.782Z,13.50
2019-04-07T07:44:08.497Z,13.64
2019-04-07T07:46:37.779Z,13.87
2019-04-07T07:49:07.102Z,13.87
2019-04-07T07:51:38.450Z,14.16
2019-04-07T07:54:07.043Z,14.16
2019-04-07T07:56:36.751Z,14.25
2019-04-07T07:59:06.251Z,14.52
2019-04-07T08:01:35.319Z,14.58
2019-04-07T08:04:05.221Z,14.84
2019-04-07T08:06:34.659Z,15.01
2019-04-07T08:09:13.817Z,14.87
2019-04-07T08:11:39.014Z,15.04
2019-04-07T08:14:08.703Z,15.04
2019-04-07T08:16:38.011Z,15.38
2019-04-07T08:19:09.434Z,15.38
2019-04-07T08:21:38.096Z,15.72
2019-04-07T08:24:08.049Z,15.75
2019-04-07T08:26:37.158Z,15.86
2019-04-07T08:29:07.769Z,15.86
2019-04-07T08:31:38.427Z,15.89
2019-04-07T08:34:08.891Z,15.96
2019-04-07T08:36:38.115Z,16.20
2019-04-07T08:39:19.457Z,16.37
2019-04-07T08:41:42.778Z,16.44
2019-04-07T08:44:16.135Z,16.66
2019-04-07T08:46:45.423Z,16.82
2019-04-07T08:49:14.538Z,16.79
2019-04-07T08:51:43.842Z,16.89
2019-04-07T08:54:15.660Z,16.79
2019-04-07T08:56:43.800Z,17.10
2019-04-07T08:59:16.185Z,17.27
2019-04-07T09:01:44.598Z,17.27
2019-04-07T09:04:16.970Z,17.64
2019-04-07T09:06:46.104Z,17.56
2019-04-07T09:09:15.680Z,17.73
2019-04-07T09:11:44.809Z,18.01
2019-04-07T09:14:15.987Z,18.09
2019-04-07T09:19:57.128Z,18.29
2019-04-07T09:22:44.541Z,18.18
2019-04-07T09:25:22.648Z,18.51
2019-04-07T09:28:02.135Z,18.50
2019-04-07T09:30:44.413Z,18.93
2019-04-07T09:33:29.805Z,19.34
2019-04-07T09:36:23.464Z,19.27
2019-04-07T09:39:09.698Z,19.53
2019-04-07T09:41:57.214Z,19.25
2019-04-07T09:44:49.412Z,19.25
2019-04-07T09:47:49.371Z,20.47
2019-04-07T09:50:55.161Z,20.44
2019-04-07T09:54:03.122Z,20.15
2019-04-07T09:56:49.683Z,20.59
2019-04-07T09:59:29.677Z,20.59
2019-04-07T10:02:30.764Z,20.80
2019-04-07T10:05:15.831Z,21.35
2019-04-07T10:08:03.160Z,20.88
2019-04-07T10:10:51.519Z,21.30
2019-04-07T10:13:55.437Z,21.39
2019-04-07T10:16:50.608Z,21.58
2019-04-07T10:19:38.859Z,21.70
2019-04-07T10:22:17.549Z,21.03
2019-04-07T10:25:21.047Z,21.72
2019-04-07T10:28:00.658Z,21.87
2019-04-07T10:30:59.878Z,21.87
2019-04-07T10:33:48.206Z,21.80
2019-04-07T10:36:27.031Z,21.85
2019-04-07T10:39:11.989Z,21.88
2019-04-07T10:42:09.984Z,22.12
2019-04-07T10:44:52.336Z,22.12
2019-04-07T10:47:36.814Z,22.21
2019-04-07T10:50:20.018Z,22.21
2019-04-07T10:53:00.240Z,22.01
2019-04-07T10:55:40.785Z,22.82
2019-04-07T10:58:46.196Z,22.61
2019-04-07T11:01:33.509Z,22.19
2019-04-07T11:04:15.593Z,22.19
2019-04-07T11:07:07.155Z,22.19
2019-04-07T11:09:54.272Z,22.44
2019-04-07T11:12:52.440Z,21.86
2019-04-07T11:15:29.163Z,21.94
2019-04-07T11:18:21.587Z,21.95
2019-04-07T11:21:05.496Z,21.86
2019-04-07T11:23:58.964Z,21.86
2019-04-07T11:27:01.727Z,22.22
2019-04-07T11:29:43.734Z,21.99
2019-04-07T11:32:28.912Z,22.28
2019-04-07T11:35:15.613Z,22.46
2019-04-07T11:37:51.721Z,22.18
2019-04-07T11:42:48.069Z,22.89
2019-04-07T11:45:36.454Z,23.73
2019-04-07T11:48:21.910Z,24.24
2019-04-07T11:50:57.648Z,24.24
2019-04-07T11:53:36.835Z,23.37
2019-04-07T11:56:12.948Z,22.98
2019-04-07T11:59:02.889Z,23.59
2019-04-07T12:01:54.161Z,23.30
2019-04-07T12:04:51.006Z,23.62
2019-04-07T12:07:40.252Z,23.62
2019-04-07T12:10:34.619Z,24.12
2019-04-07T12:13:14.380Z,24.18
2019-04-07T12:16:02.029Z,24.77
2019-04-07T12:18:51.359Z,24.49
2019-04-07T12:21:56.831Z,23.46
2019-04-07T12:24:45.548Z,24.15
2019-04-07T12:27:32.232Z,24.13
2019-04-07T12:30:23.415Z,24.57
2019-04-07T12:33:07.266Z,24.94
2019-04-07T12:36:08.318Z,25.13
2019-04-07T12:38:48.117Z,23.75
2019-04-07T12:41:23.657Z,24.35
2019-04-07T12:44:09.197Z,24.35
2019-04-07T12:46:56.964Z,24.89
2019-04-07T12:49:44.491Z,25.11
2019-04-07T12:52:32.229Z,25.11
2019-04-07T12:55:13.710Z,24.96
2019-04-07T12:58:11.834Z,24.96
2019-04-07T13:01:15.232Z,25.41
2019-04-07T13:03:48.060Z,25.41
2019-04-07T13:06:28.755Z,24.54
2019-04-07T13:09:04.016Z,24.45
2019-04-07T13:11:49.708Z,24.57
2019-04-07T13:14:28.972Z,25.52
2019-04-07T13:17:20.566Z,25.76
2019-04-07T13:20:19.735Z,25.47
2019-04-07T13:23:25.818Z,26.15
2019-04-07T13:26:33.557Z,26.09
2019-04-07T13:29:07.802Z,25.83
2019-04-07T13:31:58.384Z,24.87
2019-04-07T13:34:45.241Z,25.43
2019-04-07T13:37:48.590Z,25.52
2019-04-07T13:40:48.272Z,25.43
2019-04-07T13:43:35.928Z,25.96
2019-04-07T13:46:25.283Z,25.55
2019-04-07T13:49:07.564Z,25.89
2019-04-07T13:52:02.460Z,25.89
2019-04-07T13:54:50.523Z,24.50
2019-04-07T13:57:37.132Z,25.17
2019-04-07T14:00:27.343Z,24.04
2019-04-07T14:03:25.506Z,26.03
2019-04-07T14:06:11.325Z,24.91
2019-04-07T14:08:57.580Z,24.91
2019-04-07T14:11:56.469Z,25.26
2019-04-07T14:14:32.705Z,25.26
2019-04-07T14:17:14.199Z,25.37
2019-04-07T14:19:57.551Z,25.40
2019-04-07T14:22:39.936Z,26.17
2019-04-07T14:25:43.455Z,25.32
2019-04-07T14:28:30.883Z,25.60
2019-04-07T14:31:10.819Z,25.19
2019-04-07T14:34:03.420Z,24.98
2019-04-07T14:36:43.911Z,25.62
2019-04-07T14:39:33.100Z,25.55
2019-04-07T14:42:17.659Z,25.55
2019-04-07T14:45:05.700Z,25.20
2019-04-07T14:47:40.264Z,25.38
2019-04-07T14:50:40.846Z,23.88
2019-04-07T14:53:27.579Z,23.60
2019-04-07T14:56:18.705Z,23.49
2019-04-07T14:59:13.081Z,23.04
2019-04-07T15:02:10.562Z,22.78
2019-04-07T15:04:59.534Z,23.19
2019-04-07T15:07:42.806Z,22.45
2019-04-07T15:10:17.977Z,22.70
2019-04-07T15:12:50.277Z,22.60
2019-04-07T15:15:19.335Z,24.15
2019-04-07T15:17:48.796Z,23.09
2019-04-07T15:20:18.075Z,22.71
2019-04-07T15:22:48.478Z,23.08
2019-04-07T15:25:18.412Z,22.42
2019-04-07T15:27:47.743Z,22.56
2019-04-07T15:30:17.024Z,22.23
2019-04-07T15:32:46.164Z,22.38
2019-04-07T15:35:21.472Z,23.47
2019-04-07T15:37:51.972Z,23.47
2019-04-07T15:40:28.177Z,23.91
2019-04-07T15:43:01.481Z,23.83
2019-04-07T15:45:28.721Z,23.44
2019-04-07T15:48:00.281Z,23.45
2019-04-07T15:50:30.134Z,23.77
2019-04-07T15:52:59.606Z,22.85
2019-04-07T15:55:43.294Z,22.10
2019-04-07T15:57:59.734Z,22.08
2019-04-07T16:00:32.321Z,22.13
2019-04-07T16:03:01.317Z,21.78
2019-04-07T16:05:37.830Z,22.03
2019-04-07T16:08:02.189Z,21.54
2019-04-07T16:10:31.405Z,21.78
2019-04-07T16:13:01.379Z,21.90
2019-04-07T16:15:30.857Z,21.29
2019-04-07T16:18:04.101Z,21.71
2019-04-07T16:20:38.039Z,21.64
2019-04-07T16:23:05.390Z,21.64
2019-04-07T16:25:34.555Z,21.40
2019-04-07T16:28:03.777Z,21.62
2019-04-07T16:30:34.111Z,21.93
2019-04-07T16:33:05.323Z,22.24
2019-04-07T16:35:34.555Z,22.42
2019-04-07T16:38:03.731Z,22.59
2019-04-07T16:40:32.798Z,22.41
2019-04-07T16:43:11.597Z,22.32
2019-04-07T16:45:32.802Z,21.88
2019-04-07T16:48:04.581Z,21.82
2019-04-07T16:50:32.713Z,21.61
2019-04-07T16:53:03.530Z,21.90
2019-04-07T16:55:39.916Z,21.56
2019-04-07T16:58:09.811Z,21.56
2019-04-07T17:00:39.866Z,21.24
2019-04-07T17:03:10.029Z,21.21
2019-04-07T17:05:39.912Z,20.88
2019-04-07T17:08:09.236Z,21.13
2019-04-07T17:10:39.141Z,20.73
2019-04-07T17:13:19.617Z,20.64
2019-04-07T17:15:41.958Z,20.83
2019-04-07T17:18:37.042Z,20.37
2019-04-07T17:21:11.707Z,20.37
2019-04-07T17:23:40.830Z,20.53
2019-04-07T17:26:13.642Z,20.58
2019-04-07T17:28:48.157Z,20.10
2019-04-07T17:31:16.368Z,19.97
2019-04-07T17:33:55.206Z,20.29
2019-04-07T17:37:32.672Z,20.18
2019-04-07T17:39:40.539Z,19.74
2019-04-07T17:42:15.638Z,19.92
2019-04-07T17:45:05.970Z,19.69
2019-04-07T17:48:06.147Z,19.50
2019-04-07T17:50:53.149Z,19.37
2019-04-07T17:53:45.375Z,19.32
2019-04-07T17:56:35.768Z,19.55
2019-04-07T17:59:15.233Z,19.40
2019-04-07T18:01:54.060Z,19.22
2019-04-07T18:04:42.418Z,19.10
2019-04-07T18:07:30.046Z,18.89
2019-04-07T18:10:18.017Z,18.96
2019-04-07T18:12:56.966Z,19.02
2019-04-07T18:15:55.528Z,19.09
2019-04-07T18:18:45.874Z,18.78
2019-04-07T18:21:37.603Z,18.66
2019-04-07T18:24:35.947Z,18.58
2019-04-07T18:27:21.542Z,18.46
2019-04-07T18:30:00.727Z,18.70
2019-04-07T18:32:37.350Z,18.59
2019-04-07T18:35:19.491Z,18.37
2019-04-07T18:38:04.381Z,18.30
2019-04-07T18:40:42.907Z,18.44
2019-04-07T18:43:34.072Z,18.05
2019-04-07T18:46:21.516Z,18.05
2019-04-07T18:49:15.824Z,18.22
2019-04-07T18:52:05.551Z,18.43
2019-04-07T18:54:46.473Z,18.43
2019-04-07T18:57:33.249Z,17.71
2019-04-07T19:00:19.059Z,17.89
2019-04-07T19:03:04.545Z,17.87
2019-04-07T19:05:43.993Z,17.97
2019-04-07T19:08:41.341Z,17.97
2019-04-07T19:11:37.296Z,17.74
2019-04-07T19:14:41.142Z,17.45
2019-04-07T19:17:08.907Z,17.44
2019-04-07T19:20:00.645Z,17.45
2019-04-07T19:22:40.769Z,17.45
2019-04-07T19:28:16.078Z,17.11
2019-04-07T19:31:08.568Z,16.75
2019-04-07T19:33:50.531Z,16.85
2019-04-07T19:36:34.853Z,16.72
2019-04-07T19:39:23.608Z,16.95
2019-04-07T19:42:24.009Z,16.95
2019-04-07T19:45:16.381Z,16.56
2019-04-07T19:48:18.350Z,16.45
2019-04-07T19:51:22.599Z,16.27
2019-04-07T19:54:21.643Z,16.26
2019-04-07T20:02:07.520Z,16.11
2019-04-07T20:05:28.115Z,15.83
2019-04-07T20:08:49.355Z,15.60
2019-04-07T20:15:46.155Z,15.31
2019-04-07T20:18:28.279Z,15.17
2019-04-07T20:21:13.118Z,15.18
2019-04-07T20:24:11.973Z,14.94
2019-04-07T20:26:58.829Z,14.99
2019-04-07T20:29:43.781Z,15.03
2019-04-07T20:32:29.483Z,14.87
2019-04-07T20:35:15.691Z,14.99
2019-04-07T20:38:02.071Z,14.84
2019-04-07T20:40:45.453Z,14.89
2019-04-07T20:43:23.305Z,14.68
2019-04-07T20:46:08.923Z,14.68
2019-04-07T20:48:59.255Z,14.66
2019-04-07T20:51:41.018Z,14.65
2019-04-07T20:54:31.528Z,14.61
2019-04-07T20:57:31.057Z,14.37
2019-04-07T21:00:18.572Z,14.61
2019-04-07T21:03:15.283Z,14.19
2019-04-07T21:05:46.170Z,14.19
2019-04-07T21:08:43.497Z,14.32
2019-04-07T21:11:31.581Z,14.32
2019-04-07T21:14:15.490Z,14.09
2019-04-07T21:17:01.625Z,14.16
2019-04-07T21:19:54.309Z,14.06
2019-04-07T21:22:45.246Z,14.05
2019-04-07T21:25:37.101Z,14.09
2019-04-07T21:28:20.338Z,13.83
2019-04-07T21:31:17.282Z,13.82
2019-04-07T21:33:56.611Z,13.82
2019-04-07T21:36:46.359Z,13.81
2019-04-07T21:39:30.442Z,13.81
2019-04-07T21:42:27.480Z,13.57
2019-04-07T21:45:09.304Z,13.70
2019-04-07T21:48:00.521Z,13.63
2019-04-07T21:50:49.278Z,13.68
2019-04-07T21:53:28.204Z,13.73
2019-04-07T21:56:22.149Z,13.74
2019-04-07T21:59:07.691Z,13.45
2019-04-07T22:01:47.604Z,13.45
2019-04-07T22:04:38.464Z,13.32
2019-04-07T22:07:19.374Z,13.36
2019-04-07T22:09:52.525Z,13.36
2019-04-07T22:12:28.028Z,13.30
2019-04-07T22:14:57.097Z,13.12
2019-04-07T22:17:26.558Z,13.08
2019-04-07T22:19:56.423Z,13.17
2019-04-07T22:22:26.863Z,13.11
2019-04-07T22:24:56.690Z,12.94
2019-04-07T22:27:27.309Z,12.95
2019-04-07T22:29:56.717Z,12.80
2019-04-07T22:32:26.764Z,12.68
2019-04-07T22:34:55.834Z,12.64
2019-04-07T22:37:28.150Z,12.65
2019-04-07T22:40:01.798Z,12.64
2019-04-07T22:42:30.940Z,12.64
2019-04-07T22:45:00.097Z,12.64
2019-04-07T22:47:29.459Z,12.79
2019-04-07T22:50:01.212Z,12.71
2019-04-07T22:52:30.059Z,12.78
2019-04-07T22:55:04.232Z,12.64
2019-04-07T22:57:29.850Z,12.64
2019-04-07T23:00:00.048Z,12.72
2019-04-07T23:02:29.730Z,12.56
2019-04-07T23:04:58.835Z,12.43
2019-04-07T23:07:28.029Z,12.44
2019-04-07T23:09:57.980Z,12.30
2019-04-07T23:12:27.106Z,12.31
2019-04-07T23:14:56.269Z,12.31
2019-04-07T23:17:26.298Z,12.21
2019-04-07T23:19:55.300Z,12.08
2019-04-07T23:22:24.320Z,11.99
2019-04-07T23:24:53.387Z,11.90
2019-04-07T23:27:22.409Z,11.70
2019-04-07T23:29:51.553Z,11.70
2019-04-07T23:32:21.230Z,11.72
2019-04-07T23:34:50.400Z,11.65
2019-04-07T23:37:22.116Z,11.61
2019-04-07T23:39:51.687Z,11.68
2019-04-07T23:42:20.754Z,11.69
2019-04-07T23:44:49.945Z,11.50
2019-04-07T23:47:19.478Z,11.56
2019-04-07T23:49:48.588Z,11.65
2019-04-07T23:52:18.529Z,11.55
2019-04-07T23:54:48.277Z,11.53
2019-04-07T23:57:17.742Z,11.53
2019-04-07T23:59:47.196Z,11.54
